createdAt,value
2017-11-15T00:00:55.349Z,0.00
2017-11-15T00:01:55.335Z,0.00
2017-11-15T00:02:55.322Z,0.00
2017-11-15T00:03:55.309Z,0.00
2017-11-15T00:04:55.298Z,0.00
2017-11-15T00:05:55.288Z,0.00
2017-11-15T00:06:55.286Z,0.00
2017-11-15T00:07:55.266Z,0.00
2017-11-15T00:08:55.264Z,0.00
2017-11-15T00:09:55.242Z,0.00
2017-11-15T00:10:55.233Z,0.00
2017-11-15T00:11:55.221Z,0.00
2017-11-15T00:12:55.212Z,0.00
2017-11-15T00:13:55.197Z,0.00
2017-11-15T00:14:55.186Z,0.00
2017-11-15T00:15:55.177Z,0.00
2017-11-15T00:16:55.164Z,0.00
2017-11-15T00:17:55.161Z,0.00
2017-11-15T00:18:55.144Z,0.00
2017-11-15T00:19:55.131Z,0.00
2017-11-15T00:20:55.119Z,0.00
2017-11-15T00:21:55.115Z,0.00
2017-11-15T00:22:55.099Z,0.00
2017-11-15T00:23:55.089Z,0.00
2017-11-15T00:24:55.077Z,0.00
2017-11-15T00:25:55.064Z,0.00
2017-11-15T00:26:55.053Z,0.00
2017-11-15T00:27:55.041Z,0.00
2017-11-15T00:28:55.034Z,0.00
2017-11-15T00:29:55.022Z,0.00
2017-11-15T00:30:55.015Z,0.00
2017-11-15T00:31:55.003Z,0.00
2017-11-15T00:32:54.987Z,0.00
2017-11-15T00:33:54.973Z,0.00
2017-11-15T00:34:54.975Z,0.00
2017-11-15T00:35:54.952Z,0.00
2017-11-15T00:36:54.940Z,0.00
2017-11-15T00:37:54.932Z,0.00
2017-11-15T00:38:54.918Z,0.00
2017-11-15T00:39:54.908Z,0.00
2017-11-15T00:40:54.899Z,0.00
2017-11-15T00:41:54.883Z,0.00
2017-11-15T00:42:54.874Z,0.00
2017-11-15T00:43:54.862Z,0.00
2017-11-15T00:44:54.851Z,0.00
2017-11-15T00:45:54.843Z,0.00
2017-11-15T00:46:54.830Z,0.00
2017-11-15T00:47:54.816Z,0.00
2017-11-15T00:48:54.806Z,0.00
2017-11-15T00:49:54.793Z,0.00
2017-11-15T00:50:54.786Z,0.00
2017-11-15T00:51:54.773Z,0.00
2017-11-15T00:52:54.760Z,0.00
2017-11-15T00:53:54.764Z,0.00
2017-11-15T00:54:54.739Z,0.00
2017-11-15T00:55:54.731Z,0.00
2017-11-15T00:56:54.715Z,0.00
2017-11-15T00:57:54.708Z,0.00
2017-11-15T00:58:54.694Z,0.00
2017-11-15T00:59:54.682Z,0.00
2017-11-15T01:00:54.669Z,0.00
2017-11-15T01:01:54.682Z,0.00
2017-11-15T01:02:54.649Z,0.00
2017-11-15T01:03:54.641Z,0.00
2017-11-15T01:04:54.627Z,0.00
2017-11-15T01:05:54.614Z,0.00
2017-11-15T01:06:54.603Z,0.00
2017-11-15T01:07:54.606Z,0.00
2017-11-15T01:08:54.581Z,0.00
2017-11-15T01:09:54.570Z,0.00
2017-11-15T01:10:54.559Z,0.00
2017-11-15T01:11:54.549Z,0.00
2017-11-15T01:12:54.543Z,0.00
2017-11-15T01:13:54.526Z,0.00
2017-11-15T01:14:54.513Z,0.00
2017-11-15T01:15:54.509Z,0.00
2017-11-15T01:16:54.491Z,0.00
2017-11-15T01:17:54.482Z,0.00
2017-11-15T01:18:54.473Z,0.00
2017-11-15T01:19:54.458Z,0.00
2017-11-15T01:20:54.448Z,0.00
2017-11-15T01:21:54.437Z,0.00
2017-11-15T01:22:54.428Z,0.00
2017-11-15T01:23:54.422Z,0.00
2017-11-15T01:24:54.405Z,0.00
2017-11-15T01:25:54.391Z,0.00
2017-11-15T01:26:54.382Z,0.00
2017-11-15T01:27:54.368Z,0.00
2017-11-15T01:28:54.357Z,0.00
2017-11-15T01:29:54.351Z,0.00
2017-11-15T01:30:54.334Z,0.00
2017-11-15T01:31:54.325Z,0.00
2017-11-15T01:32:54.317Z,0.00
2017-11-15T01:33:54.300Z,0.00
2017-11-15T01:34:54.300Z,0.00
2017-11-15T01:35:54.279Z,0.00
2017-11-15T01:36:54.271Z,0.00
2017-11-15T01:37:54.257Z,0.00
2017-11-15T01:38:54.246Z,0.00
2017-11-15T01:39:54.235Z,0.00
2017-11-15T01:40:54.223Z,0.00
2017-11-15T01:41:54.213Z,0.00
2017-11-15T01:42:54.199Z,0.00
2017-11-15T01:43:54.191Z,0.00
2017-11-15T01:44:54.178Z,0.00
2017-11-15T01:45:54.176Z,0.00
2017-11-15T01:46:54.156Z,0.00
2017-11-15T01:47:54.148Z,0.00
2017-11-15T01:48:54.134Z,0.00
2017-11-15T01:49:54.123Z,0.00
2017-11-15T01:50:54.111Z,0.00
2017-11-15T01:51:54.102Z,0.00
2017-11-15T01:52:54.105Z,0.00
2017-11-15T01:53:54.076Z,0.00
2017-11-15T01:54:54.082Z,0.00
2017-11-15T01:55:54.056Z,0.00
2017-11-15T01:56:54.044Z,0.00
2017-11-15T01:57:54.048Z,0.00
2017-11-15T01:58:54.024Z,0.00
2017-11-15T01:59:54.013Z,0.00
2017-11-15T02:00:54.000Z,0.00
2017-11-15T02:01:53.991Z,0.00
2017-11-15T02:02:53.978Z,0.00
2017-11-15T02:03:53.969Z,0.00
2017-11-15T02:04:53.954Z,0.00
2017-11-15T02:05:53.946Z,0.00
2017-11-15T02:06:53.932Z,0.00
2017-11-15T02:07:53.926Z,0.00
2017-11-15T02:08:53.912Z,0.00
2017-11-15T02:09:53.898Z,0.00
2017-11-15T02:10:53.889Z,0.00
2017-11-15T02:11:53.881Z,0.00
2017-11-15T02:12:53.864Z,0.00
2017-11-15T02:13:53.853Z,0.00
2017-11-15T02:14:53.843Z,0.00
2017-11-15T02:15:53.848Z,0.00
2017-11-15T02:16:53.820Z,0.00
2017-11-15T02:17:53.811Z,0.00
2017-11-15T02:18:53.802Z,0.00
2017-11-15T02:19:53.788Z,0.00
2017-11-15T02:20:53.776Z,0.00
2017-11-15T02:21:53.766Z,0.00
2017-11-15T02:22:53.753Z,0.00
2017-11-15T02:23:53.746Z,0.00
2017-11-15T02:24:53.734Z,0.00
2017-11-15T02:25:53.720Z,0.00
2017-11-15T02:26:53.711Z,0.00
2017-11-15T02:27:53.701Z,0.00
2017-11-15T02:28:53.687Z,0.00
2017-11-15T02:29:53.679Z,0.00
2017-11-15T02:30:53.666Z,0.00
2017-11-15T02:31:53.655Z,0.00
2017-11-15T02:32:53.641Z,0.00
2017-11-15T02:33:53.632Z,0.00
2017-11-15T02:34:53.619Z,0.00
2017-11-15T02:35:53.615Z,0.00
2017-11-15T02:36:53.599Z,0.00
2017-11-15T02:37:53.593Z,0.00
2017-11-15T02:38:53.576Z,0.00
2017-11-15T02:39:53.566Z,0.00
2017-11-15T02:40:53.570Z,0.00
2017-11-15T02:41:53.540Z,0.00
2017-11-15T02:42:53.542Z,0.00
2017-11-15T02:43:53.520Z,0.00
2017-11-15T02:44:53.510Z,0.00
2017-11-15T02:45:53.512Z,0.00
2017-11-15T02:46:53.512Z,0.00
2017-11-15T02:47:53.478Z,0.00
2017-11-15T02:48:53.470Z,0.00
2017-11-15T02:49:53.453Z,0.00
2017-11-15T02:50:53.440Z,0.00
2017-11-15T02:51:53.430Z,0.00
2017-11-15T02:52:53.416Z,0.00
2017-11-15T02:53:53.408Z,0.00
2017-11-15T02:54:53.404Z,0.00
2017-11-15T02:55:53.386Z,0.00
2017-11-15T02:56:53.373Z,0.00
2017-11-15T02:57:53.363Z,0.00
2017-11-15T02:58:53.350Z,0.00
2017-11-15T02:59:53.339Z,0.00
2017-11-15T03:00:53.328Z,0.00
2017-11-15T03:01:53.318Z,0.00
2017-11-15T03:02:53.307Z,0.00
2017-11-15T03:03:53.313Z,0.00
2017-11-15T03:04:53.282Z,0.00
2017-11-15T03:05:53.272Z,0.00
2017-11-15T03:06:53.261Z,0.00
2017-11-15T03:07:53.252Z,0.00
2017-11-15T03:08:53.238Z,0.00
2017-11-15T03:09:53.232Z,0.00
2017-11-15T03:10:53.224Z,0.00
2017-11-15T03:11:53.212Z,0.00
2017-11-15T03:12:53.194Z,0.00
2017-11-15T03:13:53.190Z,0.00
2017-11-15T03:14:53.178Z,0.00
2017-11-15T03:15:53.160Z,0.00
2017-11-15T03:16:53.149Z,0.00
2017-11-15T03:17:53.139Z,0.00
2017-11-15T03:18:53.133Z,0.00
2017-11-15T03:19:53.133Z,0.00
2017-11-15T03:20:53.107Z,0.00
2017-11-15T03:21:53.098Z,0.00
2017-11-15T03:22:53.088Z,0.00
2017-11-15T03:23:53.078Z,0.00
2017-11-15T03:24:53.063Z,0.00
2017-11-15T03:25:53.048Z,0.00
2017-11-15T03:26:53.036Z,0.00
2017-11-15T03:27:53.024Z,0.00
2017-11-15T03:28:53.023Z,0.00
2017-11-15T03:29:53.002Z,0.00
2017-11-15T03:30:52.999Z,0.00
2017-11-15T03:31:52.980Z,0.00
2017-11-15T03:32:52.970Z,0.00
2017-11-15T03:33:52.989Z,0.00
2017-11-15T03:34:52.949Z,0.00
2017-11-15T03:35:52.936Z,0.00
2017-11-15T03:36:52.925Z,0.00
2017-11-15T03:37:52.913Z,0.00
2017-11-15T03:38:52.912Z,0.00
2017-11-15T03:39:52.894Z,0.00
2017-11-15T03:40:52.884Z,0.00
2017-11-15T03:41:52.868Z,0.00
2017-11-15T03:42:52.860Z,0.00
2017-11-15T03:43:52.848Z,0.00
2017-11-15T03:44:52.836Z,0.00
2017-11-15T03:45:52.823Z,0.00
2017-11-15T03:46:52.812Z,0.00
2017-11-15T03:47:52.801Z,0.00
2017-11-15T03:48:52.801Z,0.00
2017-11-15T03:49:52.778Z,0.00
2017-11-15T03:50:52.767Z,0.00
2017-11-15T03:51:52.758Z,0.00
2017-11-15T03:52:52.753Z,0.00
2017-11-15T03:53:52.735Z,0.00
2017-11-15T03:54:52.723Z,0.00
2017-11-15T03:55:52.718Z,0.00
2017-11-15T03:56:52.702Z,0.00
2017-11-15T03:57:52.689Z,0.00
2017-11-15T03:58:52.685Z,0.00
2017-11-15T03:59:52.668Z,0.00
2017-11-15T04:00:52.654Z,0.00
2017-11-15T04:01:52.654Z,0.00
2017-11-15T04:02:52.632Z,0.00
2017-11-15T04:03:52.626Z,0.00
2017-11-15T04:04:52.609Z,0.00
2017-11-15T04:05:52.599Z,0.00
2017-11-15T04:06:52.587Z,0.00
2017-11-15T04:07:52.575Z,0.00
2017-11-15T04:08:52.567Z,0.00
2017-11-15T04:09:52.554Z,0.00
2017-11-15T04:10:52.542Z,0.00
2017-11-15T04:11:52.532Z,0.00
2017-11-15T04:12:52.520Z,0.00
2017-11-15T04:13:52.511Z,0.00
2017-11-15T04:14:52.499Z,0.00
2017-11-15T04:15:52.487Z,0.00
2017-11-15T04:16:52.482Z,0.00
2017-11-15T04:17:52.464Z,0.00
2017-11-15T04:18:52.471Z,0.00
2017-11-15T04:19:52.444Z,0.00
2017-11-15T04:20:52.429Z,0.00
2017-11-15T04:21:52.420Z,0.00
2017-11-15T04:22:52.412Z,0.00
2017-11-15T04:23:52.396Z,0.00
2017-11-15T04:24:52.388Z,0.00
2017-11-15T04:25:52.374Z,0.00
2017-11-15T04:26:52.363Z,0.00
2017-11-15T04:27:52.354Z,0.00
2017-11-15T04:28:52.339Z,0.00
2017-11-15T04:29:52.329Z,0.00
2017-11-15T04:30:52.318Z,0.00
2017-11-15T04:31:52.308Z,0.00
2017-11-15T04:32:52.294Z,0.00
2017-11-15T04:33:52.284Z,0.00
2017-11-15T04:34:52.273Z,0.00
2017-11-15T04:35:52.264Z,0.00
2017-11-15T04:36:52.249Z,0.00
2017-11-15T04:37:52.238Z,0.00
2017-11-15T04:38:52.229Z,0.00
2017-11-15T04:39:52.217Z,0.00
2017-11-15T04:40:52.205Z,0.00
2017-11-15T04:41:52.195Z,0.00
2017-11-15T04:42:52.185Z,0.00
2017-11-15T04:43:52.171Z,0.00
2017-11-15T04:44:52.161Z,0.00
2017-11-15T04:45:52.153Z,0.00
2017-11-15T04:46:52.145Z,0.00
2017-11-15T04:47:52.125Z,0.00
2017-11-15T04:48:52.117Z,0.00
2017-11-15T04:49:52.105Z,0.00
2017-11-15T04:50:52.093Z,0.00
2017-11-15T04:51:52.082Z,0.00
2017-11-15T04:52:52.093Z,0.00
2017-11-15T04:53:52.059Z,0.00
2017-11-15T04:54:52.051Z,0.00
2017-11-15T04:55:52.037Z,0.00
2017-11-15T04:56:52.027Z,0.00
2017-11-15T04:57:52.014Z,0.00
2017-11-15T04:58:52.003Z,0.00
2017-11-15T04:59:51.994Z,0.00
2017-11-15T05:00:51.982Z,0.00
2017-11-15T05:01:51.982Z,0.00
2017-11-15T05:02:51.958Z,0.00
2017-11-15T05:03:51.948Z,0.00
2017-11-15T05:04:51.937Z,0.00
2017-11-15T05:05:51.925Z,0.00
2017-11-15T05:06:51.911Z,0.00
2017-11-15T05:07:51.904Z,0.00
2017-11-15T05:08:51.894Z,0.00
2017-11-15T05:09:51.894Z,0.00
2017-11-15T05:10:51.869Z,0.00
2017-11-15T05:11:51.859Z,0.00
2017-11-15T05:12:51.853Z,0.00
2017-11-15T05:13:51.844Z,0.00
2017-11-15T05:14:51.824Z,0.00
2017-11-15T05:15:51.815Z,0.00
2017-11-15T05:16:51.801Z,0.00
2017-11-15T05:17:51.790Z,0.00
2017-11-15T05:18:51.780Z,0.00
2017-11-15T05:19:51.767Z,0.00
2017-11-15T05:20:51.765Z,0.00
2017-11-15T05:21:51.744Z,0.00
2017-11-15T05:22:51.741Z,0.00
2017-11-15T05:23:51.726Z,0.00
2017-11-15T05:24:51.709Z,0.00
2017-11-15T05:25:51.714Z,0.00
2017-11-15T05:26:51.689Z,0.00
2017-11-15T05:27:51.678Z,0.00
2017-11-15T05:28:51.664Z,0.00
2017-11-15T05:29:51.659Z,0.00
2017-11-15T05:30:51.669Z,0.00
2017-11-15T05:31:51.633Z,0.00
2017-11-15T05:32:51.620Z,0.00
2017-11-15T05:33:51.614Z,0.00
2017-11-15T05:34:51.604Z,0.00
2017-11-15T05:35:51.594Z,0.00
2017-11-15T05:36:51.578Z,0.00
2017-11-15T05:37:51.570Z,0.00
2017-11-15T05:38:51.560Z,0.00
2017-11-15T05:39:51.546Z,0.00
2017-11-15T05:40:51.535Z,0.00
2017-11-15T05:41:51.520Z,0.00
2017-11-15T05:42:51.514Z,0.00
2017-11-15T05:43:51.502Z,0.00
2017-11-15T05:44:51.497Z,0.00
2017-11-15T05:45:51.475Z,0.00
2017-11-15T05:46:51.467Z,0.00
2017-11-15T05:47:51.459Z,0.00
2017-11-15T05:48:51.440Z,0.00
2017-11-15T05:49:51.431Z,0.00
2017-11-15T05:50:51.426Z,0.00
2017-11-15T05:51:51.410Z,0.00
2017-11-15T05:52:51.403Z,0.00
2017-11-15T05:53:51.386Z,0.00
2017-11-15T05:54:51.375Z,0.00
2017-11-15T05:55:51.366Z,0.00
2017-11-15T05:56:51.354Z,0.00
2017-11-15T05:57:51.350Z,0.00
2017-11-15T05:58:51.350Z,0.00
2017-11-15T05:59:51.328Z,0.00
2017-11-15T06:00:51.318Z,0.00
2017-11-15T06:01:51.301Z,0.00
2017-11-15T06:02:51.319Z,0.00
2017-11-15T06:03:51.276Z,0.00
2017-11-15T06:04:51.271Z,0.00
2017-11-15T06:05:51.253Z,0.00
2017-11-15T06:06:51.245Z,0.00
2017-11-15T06:07:51.252Z,0.00
2017-11-15T06:08:51.223Z,0.00
2017-11-15T06:09:51.207Z,0.00
2017-11-15T06:10:51.262Z,0.00
2017-11-15T06:11:51.189Z,0.00
2017-11-15T06:12:51.283Z,0.00
2017-11-15T06:13:51.296Z,0.00
2017-11-15T06:14:51.248Z,0.00
2017-11-15T06:15:51.172Z,0.00
2017-11-15T06:16:51.237Z,0.00
2017-11-15T06:17:51.162Z,0.00
2017-11-15T06:18:51.155Z,0.00
2017-11-15T06:19:51.135Z,0.00
2017-11-15T06:20:51.121Z,0.00
2017-11-15T06:21:51.127Z,0.00
2017-11-15T06:22:51.118Z,0.00
2017-11-15T06:23:51.101Z,0.00
2017-11-15T06:24:51.099Z,0.00
2017-11-15T06:25:51.090Z,0.00
2017-11-15T06:26:51.099Z,0.00
2017-11-15T06:27:51.087Z,0.00
2017-11-15T06:28:51.063Z,0.00
2017-11-15T06:29:51.041Z,0.00
2017-11-15T06:30:50.975Z,0.00
2017-11-15T06:31:50.961Z,0.00
2017-11-15T06:32:51.054Z,0.00
2017-11-15T06:33:51.057Z,0.00
2017-11-15T06:34:50.975Z,0.00
2017-11-15T06:35:50.981Z,0.00
2017-11-15T06:36:51.039Z,0.00
2017-11-15T06:37:50.983Z,0.00
2017-11-15T06:38:50.894Z,0.00
2017-11-15T06:39:50.871Z,0.00
2017-11-15T06:40:50.858Z,0.00
2017-11-15T06:41:50.847Z,0.00
2017-11-15T06:42:50.847Z,0.00
2017-11-15T06:43:50.825Z,0.00
2017-11-15T06:44:50.815Z,0.00
2017-11-15T06:45:50.802Z,0.00
2017-11-15T06:46:50.791Z,0.00
2017-11-15T06:47:50.779Z,0.00
2017-11-15T06:48:50.766Z,0.00
2017-11-15T06:49:50.756Z,0.00
2017-11-15T06:50:50.746Z,5.63
2017-11-15T06:51:50.733Z,5.63
2017-11-15T06:52:50.720Z,5.63
2017-11-15T06:53:50.708Z,5.63
2017-11-15T06:54:50.700Z,5.63
2017-11-15T06:55:50.692Z,5.63
2017-11-15T06:56:50.681Z,5.63
2017-11-15T06:57:50.668Z,11.25
2017-11-15T06:58:50.660Z,11.25
2017-11-15T06:59:50.683Z,11.25
2017-11-15T07:00:50.631Z,16.88
2017-11-15T07:01:50.625Z,16.88
2017-11-15T07:02:50.613Z,16.88
2017-11-15T07:03:50.599Z,16.88
2017-11-15T07:04:50.590Z,22.50
2017-11-15T07:05:50.575Z,22.50
2017-11-15T07:06:50.567Z,22.50
2017-11-15T07:07:50.552Z,22.50
2017-11-15T07:08:50.544Z,22.50
2017-11-15T07:09:50.530Z,22.50
2017-11-15T07:10:50.555Z,22.50
2017-11-15T07:11:50.510Z,22.50
2017-11-15T07:12:50.506Z,22.50
2017-11-15T07:13:50.486Z,22.50
2017-11-15T07:14:50.479Z,22.50
2017-11-15T07:15:50.464Z,28.13
2017-11-15T07:16:50.453Z,28.13
2017-11-15T07:17:50.448Z,28.13
2017-11-15T07:18:50.429Z,28.13
2017-11-15T07:19:50.426Z,33.75
2017-11-15T07:20:50.406Z,28.13
2017-11-15T07:21:50.397Z,28.13
2017-11-15T07:22:50.398Z,33.75
2017-11-15T07:23:50.374Z,33.75
2017-11-15T07:24:50.362Z,33.75
2017-11-15T07:25:50.353Z,33.75
2017-11-15T07:26:50.345Z,39.38
2017-11-15T07:27:50.331Z,45.00
2017-11-15T07:28:50.318Z,45.00
2017-11-15T07:29:50.311Z,45.00
2017-11-15T07:30:50.298Z,45.00
2017-11-15T07:31:50.286Z,45.00
2017-11-15T07:32:50.272Z,45.00
2017-11-15T07:33:50.267Z,50.63
2017-11-15T07:34:50.252Z,50.63
2017-11-15T07:35:50.240Z,50.63
2017-11-15T07:36:50.238Z,50.63
2017-11-15T07:37:50.219Z,50.63
2017-11-15T07:38:50.207Z,50.63
2017-11-15T07:39:50.196Z,50.63
2017-11-15T07:40:50.185Z,56.25
2017-11-15T07:41:50.178Z,56.25
2017-11-15T07:42:50.162Z,56.25
2017-11-15T07:43:50.155Z,61.88
2017-11-15T07:44:50.139Z,73.13
2017-11-15T07:45:50.132Z,73.13
2017-11-15T07:46:50.120Z,73.13
2017-11-15T07:47:50.107Z,67.50
2017-11-15T07:48:50.095Z,67.50
2017-11-15T07:49:50.089Z,67.50
2017-11-15T07:50:50.079Z,67.50
2017-11-15T07:51:50.063Z,67.50
2017-11-15T07:52:50.056Z,73.13
2017-11-15T07:53:50.040Z,78.75
2017-11-15T07:54:50.032Z,84.38
2017-11-15T07:55:50.018Z,90.00
2017-11-15T07:56:50.006Z,90.00
2017-11-15T07:57:49.997Z,90.00
2017-11-15T07:58:50.029Z,95.63
2017-11-15T07:59:49.974Z,90.00
2017-11-15T08:00:49.968Z,90.00
2017-11-15T08:01:49.950Z,95.63
2017-11-15T08:02:49.942Z,101.25
2017-11-15T08:03:49.932Z,101.25
2017-11-15T08:04:49.920Z,123.75
2017-11-15T08:05:49.906Z,123.75
2017-11-15T08:06:49.904Z,123.75
2017-11-15T08:07:49.884Z,112.50
2017-11-15T08:08:49.877Z,106.88
2017-11-15T08:09:49.861Z,101.25
2017-11-15T08:10:49.851Z,101.25
2017-11-15T08:11:49.841Z,101.25
2017-11-15T08:12:49.855Z,106.88
2017-11-15T08:13:49.826Z,112.50
2017-11-15T08:14:49.807Z,101.25
2017-11-15T08:15:49.797Z,101.25
2017-11-15T08:16:49.786Z,101.25
2017-11-15T08:17:49.774Z,101.25
2017-11-15T08:18:49.772Z,90.00
2017-11-15T08:19:49.763Z,90.00
2017-11-15T08:20:49.740Z,90.00
2017-11-15T08:21:49.730Z,101.25
2017-11-15T08:22:49.719Z,106.88
2017-11-15T08:23:49.707Z,106.88
2017-11-15T08:24:49.694Z,112.50
2017-11-15T08:25:49.695Z,101.25
2017-11-15T08:26:49.677Z,106.88
2017-11-15T08:27:49.663Z,112.50
2017-11-15T08:28:49.656Z,118.13
2017-11-15T08:29:49.640Z,129.38
2017-11-15T08:30:49.629Z,135.00
2017-11-15T08:31:49.618Z,140.63
2017-11-15T08:32:49.611Z,140.63
2017-11-15T08:33:49.598Z,140.63
2017-11-15T08:34:49.586Z,129.38
2017-11-15T08:35:49.590Z,140.63
2017-11-15T08:36:49.567Z,135.00
2017-11-15T08:37:49.557Z,129.38
2017-11-15T08:38:49.544Z,135.00
2017-11-15T08:39:49.533Z,140.63
2017-11-15T08:40:49.519Z,146.25
2017-11-15T08:41:49.507Z,146.25
2017-11-15T08:42:49.501Z,151.88
2017-11-15T08:43:49.488Z,151.88
2017-11-15T08:44:49.476Z,157.50
2017-11-15T08:45:49.464Z,168.75
2017-11-15T08:46:49.458Z,180.00
2017-11-15T08:47:49.443Z,191.25
2017-11-15T08:48:49.436Z,202.50
2017-11-15T08:49:49.420Z,202.50
2017-11-15T08:50:49.411Z,191.25
2017-11-15T08:51:49.445Z,180.00
2017-11-15T08:52:49.388Z,191.25
2017-11-15T08:53:49.375Z,180.00
2017-11-15T08:54:49.374Z,174.38
2017-11-15T08:55:49.356Z,180.00
2017-11-15T08:56:49.343Z,174.38
2017-11-15T08:57:49.332Z,174.38
2017-11-15T08:58:49.329Z,163.13
2017-11-15T08:59:49.312Z,168.75
2017-11-15T09:00:49.299Z,185.63
2017-11-15T09:01:49.290Z,185.63
2017-11-15T09:02:49.295Z,191.25
2017-11-15T09:03:49.271Z,185.63
2017-11-15T09:04:49.256Z,196.88
2017-11-15T09:05:49.246Z,185.63
2017-11-15T09:06:49.243Z,191.25
2017-11-15T09:07:49.227Z,208.13
2017-11-15T09:08:49.215Z,208.13
2017-11-15T09:09:49.205Z,213.75
2017-11-15T09:10:49.194Z,208.13
2017-11-15T09:11:49.180Z,191.25
2017-11-15T09:12:49.174Z,196.88
2017-11-15T09:13:49.160Z,208.13
2017-11-15T09:14:49.152Z,202.50
2017-11-15T09:15:49.142Z,202.50
2017-11-15T09:16:49.127Z,191.25
2017-11-15T09:17:49.124Z,185.63
2017-11-15T09:18:49.107Z,185.63
2017-11-15T09:19:49.095Z,196.88
2017-11-15T09:20:49.086Z,191.25
2017-11-15T09:21:49.076Z,191.25
2017-11-15T09:22:49.064Z,213.75
2017-11-15T09:23:49.063Z,213.75
2017-11-15T09:24:49.042Z,213.75
2017-11-15T09:25:49.037Z,219.38
2017-11-15T09:26:49.021Z,196.88
2017-11-15T09:27:49.011Z,213.75
2017-11-15T09:28:49.001Z,225.00
2017-11-15T09:29:48.988Z,230.63
2017-11-15T09:30:48.984Z,225.00
2017-11-15T09:31:48.969Z,230.63
2017-11-15T09:32:48.957Z,236.25
2017-11-15T09:33:48.947Z,230.63
2017-11-15T09:34:48.935Z,225.00
2017-11-15T09:35:48.926Z,225.00
2017-11-15T09:36:48.915Z,236.25
2017-11-15T09:37:48.904Z,230.63
2017-11-15T09:38:48.894Z,253.13
2017-11-15T09:39:48.883Z,247.50
2017-11-15T09:40:48.873Z,236.25
2017-11-15T09:41:48.861Z,247.50
2017-11-15T09:42:48.851Z,253.13
2017-11-15T09:43:48.842Z,253.13
2017-11-15T09:44:48.835Z,264.38
2017-11-15T09:45:48.826Z,264.38
2017-11-15T09:46:48.812Z,253.13
2017-11-15T09:47:48.802Z,270.00
2017-11-15T09:48:48.791Z,258.75
2017-11-15T09:49:48.778Z,258.75
2017-11-15T09:50:48.773Z,275.63
2017-11-15T09:51:48.759Z,281.25
2017-11-15T09:52:48.745Z,292.50
2017-11-15T09:53:48.739Z,303.75
2017-11-15T09:54:48.728Z,326.25
2017-11-15T09:55:48.725Z,337.50
2017-11-15T09:56:48.705Z,354.38
2017-11-15T09:57:48.694Z,337.50
2017-11-15T09:58:48.685Z,348.75
2017-11-15T09:59:48.677Z,326.25
2017-11-15T10:00:48.664Z,320.63
2017-11-15T10:01:48.652Z,337.50
2017-11-15T10:02:48.641Z,343.13
2017-11-15T10:03:48.638Z,326.25
2017-11-15T10:04:48.621Z,315.00
2017-11-15T10:05:48.618Z,365.63
2017-11-15T10:06:48.601Z,360.00
2017-11-15T10:07:48.591Z,337.50
2017-11-15T10:08:48.583Z,337.50
2017-11-15T10:09:48.579Z,320.63
2017-11-15T10:10:48.562Z,343.13
2017-11-15T10:11:48.558Z,315.00
2017-11-15T10:12:48.539Z,309.38
2017-11-15T10:13:48.533Z,337.50
2017-11-15T10:14:48.519Z,331.88
2017-11-15T10:15:48.521Z,343.13
2017-11-15T10:16:48.500Z,337.50
2017-11-15T10:17:48.490Z,348.75
2017-11-15T10:18:48.492Z,354.38
2017-11-15T10:19:48.469Z,354.38
2017-11-15T10:20:48.461Z,365.63
2017-11-15T10:21:48.449Z,376.88
2017-11-15T10:22:48.439Z,399.38
2017-11-15T10:23:48.440Z,399.38
2017-11-15T10:24:48.419Z,405.00
2017-11-15T10:25:48.431Z,427.50
2017-11-15T10:26:48.411Z,489.38
2017-11-15T10:27:48.389Z,495.00
2017-11-15T10:28:48.380Z,466.88
2017-11-15T10:29:48.370Z,506.25
2017-11-15T10:30:48.375Z,500.63
2017-11-15T10:31:48.351Z,500.63
2017-11-15T10:32:48.339Z,489.38
2017-11-15T10:33:48.330Z,461.25
2017-11-15T10:34:48.320Z,450.00
2017-11-15T10:35:48.314Z,466.88
2017-11-15T10:36:48.303Z,483.75
2017-11-15T10:37:48.292Z,517.50
2017-11-15T10:38:48.282Z,556.88
2017-11-15T10:39:48.307Z,534.38
2017-11-15T10:40:48.265Z,545.63
2017-11-15T10:41:48.257Z,506.25
2017-11-15T10:42:48.244Z,500.63
2017-11-15T10:43:48.237Z,489.38
2017-11-15T10:44:48.234Z,478.13
2017-11-15T10:45:48.213Z,461.25
2017-11-15T10:46:48.211Z,405.00
2017-11-15T10:47:48.196Z,405.00
2017-11-15T10:48:48.188Z,405.00
2017-11-15T10:49:48.176Z,382.50
2017-11-15T10:50:48.166Z,343.13
2017-11-15T10:51:48.157Z,376.88
2017-11-15T10:52:48.146Z,376.88
2017-11-15T10:53:48.140Z,371.25
2017-11-15T10:54:48.132Z,360.00
2017-11-15T10:55:48.119Z,393.75
2017-11-15T10:56:48.109Z,371.25
2017-11-15T10:57:48.101Z,354.38
2017-11-15T10:58:48.090Z,376.88
2017-11-15T10:59:48.087Z,376.88
2017-11-15T11:00:48.069Z,348.75
2017-11-15T11:01:48.067Z,343.13
2017-11-15T11:02:48.054Z,348.75
2017-11-15T11:03:48.044Z,343.13
2017-11-15T11:04:48.036Z,365.63
2017-11-15T11:05:48.025Z,365.63
2017-11-15T11:06:48.015Z,331.88
2017-11-15T11:07:48.005Z,326.25
2017-11-15T11:08:47.994Z,343.13
2017-11-15T11:09:47.985Z,365.63
2017-11-15T11:10:47.992Z,365.63
2017-11-15T11:11:47.967Z,376.88
2017-11-15T11:12:47.957Z,376.88
2017-11-15T11:13:47.951Z,365.63
2017-11-15T11:14:47.957Z,326.25
2017-11-15T11:15:47.939Z,303.75
2017-11-15T11:16:47.918Z,303.75
2017-11-15T11:17:47.910Z,275.63
2017-11-15T11:18:47.901Z,303.75
2017-11-15T11:19:47.901Z,292.50
2017-11-15T11:20:47.880Z,264.38
2017-11-15T11:21:47.872Z,264.38
2017-11-15T11:22:47.862Z,292.50
2017-11-15T11:23:47.859Z,320.63
2017-11-15T11:24:47.845Z,337.50
2017-11-15T11:25:47.835Z,331.88
2017-11-15T11:26:47.830Z,303.75
2017-11-15T11:27:47.816Z,303.75
2017-11-15T11:28:47.804Z,298.13
2017-11-15T11:29:47.798Z,315.00
2017-11-15T11:30:47.786Z,315.00
2017-11-15T11:31:47.776Z,315.00
2017-11-15T11:32:47.767Z,298.13
2017-11-15T11:33:47.784Z,292.50
2017-11-15T11:34:47.754Z,292.50
2017-11-15T11:35:47.739Z,303.75
2017-11-15T11:36:47.731Z,315.00
2017-11-15T11:37:47.718Z,326.25
2017-11-15T11:38:47.712Z,331.88
2017-11-15T11:39:47.703Z,320.63
2017-11-15T11:40:47.691Z,320.63
2017-11-15T11:41:47.679Z,309.38
2017-11-15T11:42:47.672Z,343.13
2017-11-15T11:43:47.662Z,360.00
2017-11-15T11:44:47.656Z,365.63
2017-11-15T11:45:47.643Z,371.25
2017-11-15T11:46:47.634Z,382.50
2017-11-15T11:47:47.625Z,348.75
2017-11-15T11:48:47.614Z,376.88
2017-11-15T11:49:47.605Z,421.88
2017-11-15T11:50:47.595Z,433.13
2017-11-15T11:51:47.592Z,438.75
2017-11-15T11:52:47.577Z,421.88
2017-11-15T11:53:47.567Z,393.75
2017-11-15T11:54:47.579Z,365.63
2017-11-15T11:55:47.556Z,348.75
2017-11-15T11:56:47.553Z,365.63
2017-11-15T11:57:47.535Z,376.88
2017-11-15T11:58:47.520Z,376.88
2017-11-15T11:59:47.510Z,371.25
2017-11-15T12:00:47.517Z,360.00
2017-11-15T12:01:47.491Z,354.38
2017-11-15T12:02:47.482Z,337.50
2017-11-15T12:03:47.473Z,320.63
2017-11-15T12:04:47.464Z,337.50
2017-11-15T12:05:47.453Z,343.13
2017-11-15T12:06:47.443Z,320.63
2017-11-15T12:07:47.438Z,315.00
2017-11-15T12:08:47.426Z,298.13
2017-11-15T12:09:47.414Z,286.88
2017-11-15T12:10:47.422Z,275.63
2017-11-15T12:11:47.418Z,286.88
2017-11-15T12:12:47.388Z,275.63
2017-11-15T12:13:47.377Z,275.63
2017-11-15T12:14:47.398Z,258.75
2017-11-15T12:15:47.359Z,253.13
2017-11-15T12:16:47.348Z,253.13
2017-11-15T12:17:47.348Z,247.50
2017-11-15T12:18:47.331Z,230.63
2017-11-15T12:19:47.320Z,225.00
2017-11-15T12:20:47.312Z,253.13
2017-11-15T12:21:47.301Z,241.88
2017-11-15T12:22:47.291Z,230.63
2017-11-15T12:23:47.282Z,230.63
2017-11-15T12:24:47.271Z,236.25
2017-11-15T12:25:47.263Z,230.63
2017-11-15T12:26:47.257Z,225.00
2017-11-15T12:27:47.245Z,225.00
2017-11-15T12:28:47.254Z,208.13
2017-11-15T12:29:47.226Z,202.50
2017-11-15T12:30:47.226Z,191.25
2017-11-15T12:31:47.208Z,196.88
2017-11-15T12:32:47.196Z,208.13
2017-11-15T12:33:47.187Z,208.13
2017-11-15T12:34:47.178Z,202.50
2017-11-15T12:35:47.168Z,202.50
2017-11-15T12:36:47.165Z,180.00
2017-11-15T12:37:47.148Z,168.75
2017-11-15T12:38:47.140Z,180.00
2017-11-15T12:39:47.129Z,196.88
2017-11-15T12:40:47.120Z,196.88
2017-11-15T12:41:47.111Z,196.88
2017-11-15T12:42:47.102Z,196.88
2017-11-15T12:43:47.097Z,196.88
2017-11-15T12:44:47.082Z,191.25
2017-11-15T12:45:47.080Z,191.25
2017-11-15T12:46:47.066Z,185.63
2017-11-15T12:47:47.053Z,180.00
2017-11-15T12:48:47.044Z,180.00
2017-11-15T12:49:47.221Z,191.25
2017-11-15T12:50:47.111Z,191.25
2017-11-15T12:51:47.021Z,191.25
2017-11-15T12:52:47.056Z,191.25
2017-11-15T12:53:46.998Z,196.88
2017-11-15T12:54:46.989Z,202.50
2017-11-15T12:55:46.984Z,208.13
2017-11-15T12:56:46.970Z,219.38